Quito, Ecuador
Current Conditions -  °F | °C
As of 3:00 PM on Wednesday 28 Jan 2015 (Local Time) from SEQM Reporting Station
Broken Clouds Broken Clouds  
Wind Chill: 66°   Ceiling: 10000
Heat Index: 66°   Visibility: 6mi
Dew Point: 55°   Wind: 15mph
Humidity: 68%   Direction: 10°N
Pressure: 30.12"   Gusts: NA
Location:  0.19°S, 78.5°W
Report Text: SEQM 282000Z 01013KT 9999 SCT040 BKN100 19/13 Q1020 NOSIG RMK A3013
Loading
Personal Weather Stations






























Interactive Weather Map New forecast layout! Learn more

10-Day Weather Forecast

Advertisements
Track Severe Weather on mobile